createdAt,value
2018-03-15T00:01:33.380Z,8.87
2018-03-15T00:04:00.905Z,9.47
2018-03-15T00:06:28.408Z,9.23
2018-03-15T00:08:55.928Z,9.53
2018-03-15T00:11:23.440Z,8.97
2018-03-15T00:13:50.969Z,9.10
2018-03-15T00:16:18.505Z,9.40
2018-03-15T00:18:46.329Z,9.10
2018-03-15T00:21:14.601Z,9.33
2018-03-15T00:23:42.897Z,9.17
2018-03-15T00:26:10.401Z,9.70
2018-03-15T00:28:37.941Z,8.80
2018-03-15T00:31:05.460Z,9.63
2018-03-15T00:33:33.757Z,8.47
2018-03-15T00:36:01.265Z,9.10
2018-03-15T00:38:28.793Z,9.60
2018-03-15T00:40:56.301Z,9.67
2018-03-15T00:43:24.602Z,9.27
2018-03-15T00:45:52.109Z,9.23
2018-03-15T00:48:19.638Z,9.60
2018-03-15T00:50:47.150Z,9.63
2018-03-15T00:53:15.436Z,9.33
2018-03-15T00:55:43.726Z,9.80
2018-03-15T00:58:11.244Z,9.43
2018-03-15T01:00:38.764Z,9.90
2018-03-15T01:03:07.056Z,10.30
2018-03-15T01:05:34.552Z,9.53
2018-03-15T01:08:02.851Z,9.63
2018-03-15T01:10:30.364Z,9.27
2018-03-15T01:12:57.896Z,10.17
2018-03-15T01:15:25.401Z,9.47
2018-03-15T01:17:53.697Z,10.17
2018-03-15T01:20:21.212Z,10.37
2018-03-15T01:22:48.745Z,9.60
2018-03-15T01:25:16.269Z,10.10
2018-03-15T01:27:44.576Z,9.60
2018-03-15T01:30:12.092Z,11.00
2018-03-15T01:32:40.385Z,9.47
2018-03-15T01:35:07.921Z,9.97
2018-03-15T01:37:35.465Z,10.87
2018-03-15T01:40:02.975Z,10.43
2018-03-15T01:42:30.500Z,10.93
2018-03-15T01:44:58.777Z,10.47
2018-03-15T01:47:27.084Z,10.67
2018-03-15T01:49:54.592Z,10.13
2018-03-15T01:52:22.144Z,10.87
2018-03-15T01:54:49.653Z,10.03
2018-03-15T01:57:17.189Z,10.80
2018-03-15T01:59:45.455Z,10.43
2018-03-15T02:02:13.001Z,10.10
2018-03-15T02:04:40.514Z,10.57
2018-03-15T02:07:08.800Z,11.20
2018-03-15T02:09:36.321Z,11.00
2018-03-15T02:12:03.852Z,10.97
2018-03-15T02:14:31.376Z,11.63
2018-03-15T02:16:58.885Z,11.57
2018-03-15T02:19:27.192Z,11.77
2018-03-15T02:21:55.464Z,11.23
2018-03-15T02:24:23.001Z,10.30
2018-03-15T02:26:50.516Z,11.60
2018-03-15T02:29:18.046Z,11.47
2018-03-15T02:31:51.414Z,11.03
2018-03-15T02:34:18.964Z,11.77
2018-03-15T02:36:47.241Z,11.30
2018-03-15T02:39:14.783Z,11.33
2018-03-15T02:41:43.062Z,11.77
2018-03-15T02:44:11.371Z,11.80
2018-03-15T02:46:38.897Z,11.33
2018-03-15T02:49:07.204Z,11.13
2018-03-15T02:51:34.715Z,11.37
2018-03-15T02:54:02.259Z,11.70
2018-03-15T02:56:29.768Z,12.07
2018-03-15T02:58:57.307Z,11.17
2018-03-15T03:01:25.580Z,11.63
2018-03-15T03:03:53.889Z,11.33
2018-03-15T03:06:21.403Z,12.33
2018-03-15T03:08:49.703Z,12.30
2018-03-15T03:11:17.999Z,13.00
2018-03-15T03:13:45.528Z,12.70
2018-03-15T03:16:13.805Z,12.80
2018-03-15T03:18:42.092Z,13.37
2018-03-15T03:21:09.597Z,13.37
2018-03-15T03:23:37.136Z,12.70
2018-03-15T03:26:04.649Z,13.33
2018-03-15T03:28:32.954Z,13.57
2018-03-15T03:31:00.464Z,13.63
2018-03-15T03:33:28.005Z,12.13
2018-03-15T03:35:55.513Z,14.10
2018-03-15T03:38:23.040Z,15.10
2018-03-15T03:40:50.544Z,14.27
2018-03-15T03:43:18.073Z,14.17
2018-03-15T03:45:45.589Z,14.53
2018-03-15T03:48:13.129Z,13.97
2018-03-15T03:50:40.650Z,15.27
2018-03-15T03:53:08.950Z,14.80
2018-03-15T03:55:36.467Z,14.37
2018-03-15T03:58:03.998Z,15.53
2018-03-15T04:00:31.508Z,15.30
2018-03-15T04:02:59.049Z,15.63
2018-03-15T04:05:26.567Z,14.87
2018-03-15T04:07:54.110Z,15.57
2018-03-15T04:10:21.621Z,16.13
2018-03-15T04:12:49.153Z,15.50
2018-03-15T04:15:16.673Z,14.60
2018-03-15T04:17:44.197Z,15.63
2018-03-15T04:20:11.721Z,15.33
2018-03-15T04:22:39.236Z,16.57
2018-03-15T04:25:06.767Z,17.50
2018-03-15T04:27:35.045Z,19.20
2018-03-15T04:30:03.357Z,19.43
2018-03-15T04:32:30.865Z,19.30
2018-03-15T04:34:58.396Z,20.57
2018-03-15T04:37:25.906Z,20.93
2018-03-15T04:39:53.456Z,21.97
2018-03-15T04:42:21.737Z,23.57
2018-03-15T04:44:49.271Z,22.67
2018-03-15T04:47:16.775Z,24.70
2018-03-15T04:49:44.311Z,23.27
2018-03-15T04:52:11.825Z,24.70
2018-03-15T04:54:39.356Z,25.90
2018-03-15T04:57:06.860Z,26.60
2018-03-15T04:59:34.385Z,26.13
2018-03-15T05:02:01.937Z,26.43
2018-03-15T05:04:29.473Z,25.57
2018-03-15T05:06:56.980Z,24.97
2018-03-15T05:09:24.506Z,26.07
2018-03-15T05:11:52.022Z,24.97
2018-03-15T05:14:20.315Z,25.60
2018-03-15T05:16:47.832Z,25.07
2018-03-15T05:19:15.364Z,26.47
2018-03-15T05:21:42.872Z,24.73
2018-03-15T05:24:11.167Z,23.87
2018-03-15T05:26:38.677Z,24.70
2018-03-15T05:29:06.210Z,23.83
2018-03-15T05:31:33.749Z,25.37
2018-03-15T05:34:01.294Z,24.13
2018-03-15T05:36:28.811Z,24.97
2018-03-15T05:38:56.354Z,25.50
2018-03-15T05:41:23.865Z,27.00
2018-03-15T05:43:51.446Z,25.70
2018-03-15T05:46:18.986Z,26.37
2018-03-15T05:48:46.521Z,25.10
2018-03-15T05:51:14.024Z,26.03
2018-03-15T05:53:42.325Z,24.57
2018-03-15T05:56:09.955Z,24.07
2018-03-15T05:58:37.485Z,25.70
2018-03-15T06:01:05.760Z,24.80
2018-03-15T06:03:34.061Z,24.77
2018-03-15T06:06:01.577Z,23.77
2018-03-15T06:08:29.107Z,23.47
2018-03-15T06:10:56.612Z,23.50
2018-03-15T06:13:24.912Z,24.50
2018-03-15T06:15:52.427Z,22.50
2018-03-15T06:18:20.709Z,24.07
2018-03-15T06:20:49.009Z,22.70
2018-03-15T06:23:16.527Z,24.10
2018-03-15T06:25:44.057Z,22.87
2018-03-15T06:28:11.583Z,22.20
2018-03-15T06:30:39.117Z,22.20
2018-03-15T06:33:07.393Z,20.60
2018-03-15T06:35:35.683Z,22.20
2018-03-15T06:38:03.200Z,20.70
2018-03-15T06:40:30.720Z,21.33
2018-03-15T06:42:58.249Z,20.70
2018-03-15T06:45:26.553Z,20.73
2018-03-15T06:47:54.073Z,21.33
2018-03-15T06:50:22.370Z,21.90
2018-03-15T06:52:49.897Z,19.60
2018-03-15T06:55:17.427Z,21.83
2018-03-15T06:57:44.956Z,21.10
2018-03-15T07:00:12.496Z,21.43
2018-03-15T07:02:40.765Z,19.93
2018-03-15T07:05:09.085Z,20.30
2018-03-15T07:07:36.601Z,19.57
2018-03-15T07:10:04.913Z,20.03
2018-03-15T07:12:32.425Z,18.37
2018-03-15T07:15:00.716Z,19.73
2018-03-15T07:17:28.233Z,19.97
2018-03-15T07:19:55.761Z,17.70
2018-03-15T07:22:23.300Z,20.07
2018-03-15T07:24:50.824Z,18.93
2018-03-15T07:27:18.332Z,19.20
2018-03-15T07:29:45.862Z,18.83
2018-03-15T07:32:14.141Z,18.07
2018-03-15T07:34:41.674Z,18.23
2018-03-15T07:37:09.967Z,18.00
2018-03-15T07:39:38.271Z,17.13
2018-03-15T07:42:05.776Z,17.50
2018-03-15T07:44:33.304Z,16.67
2018-03-15T07:47:00.813Z,16.00
2018-03-15T07:49:29.114Z,16.73
2018-03-15T07:51:56.630Z,15.70
2018-03-15T07:54:24.152Z,15.47
2018-03-15T07:56:51.675Z,17.03
2018-03-15T07:59:19.200Z,15.47
2018-03-15T08:01:46.711Z,16.03
2018-03-15T08:04:14.241Z,15.67
2018-03-15T08:06:42.522Z,16.67
2018-03-15T08:09:10.053Z,16.20
2018-03-15T08:11:37.585Z,16.73
2018-03-15T08:14:05.113Z,17.47
2018-03-15T08:16:32.653Z,16.90
2018-03-15T08:19:00.197Z,17.37
2018-03-15T08:21:28.482Z,17.77
2018-03-15T08:23:56.765Z,16.93
2018-03-15T08:26:24.297Z,17.00
2018-03-15T08:28:52.583Z,16.87
2018-03-15T08:31:20.883Z,16.13
2018-03-15T08:33:48.401Z,15.40
2018-03-15T08:36:15.937Z,16.23
2018-03-15T08:38:43.447Z,16.17
2018-03-15T08:41:10.972Z,16.60
2018-03-15T08:43:42.627Z,14.93
2018-03-15T08:46:10.157Z,16.20
2018-03-15T08:48:37.678Z,16.13
2018-03-15T08:51:05.217Z,14.70
2018-03-15T08:53:32.748Z,14.97
2018-03-15T08:56:00.282Z,13.87
2018-03-15T08:58:27.793Z,13.83
2018-03-15T09:00:56.080Z,14.87
2018-03-15T09:03:23.592Z,14.67
2018-03-15T09:05:51.164Z,14.73
2018-03-15T09:08:18.666Z,14.47
2018-03-15T09:10:46.194Z,14.17
2018-03-15T09:13:14.470Z,14.40
2018-03-15T09:15:42.764Z,15.17
2018-03-15T09:18:10.282Z,14.97
2018-03-15T09:20:37.814Z,14.23
2018-03-15T09:23:05.332Z,14.87
2018-03-15T09:25:32.866Z,14.67
2018-03-15T09:28:00.383Z,15.17
2018-03-15T09:30:27.908Z,15.27
2018-03-15T09:32:55.429Z,14.33
2018-03-15T09:35:23.741Z,14.57
2018-03-15T09:37:51.289Z,13.37
2018-03-15T09:40:18.833Z,15.40
2018-03-15T09:42:46.377Z,14.17
2018-03-15T09:45:14.698Z,15.73
2018-03-15T09:47:42.996Z,16.10
2018-03-15T09:50:10.551Z,14.83
2018-03-15T09:52:38.081Z,15.17
2018-03-15T09:55:05.633Z,14.20
2018-03-15T09:57:33.164Z,15.97
2018-03-15T10:00:00.709Z,14.40
2018-03-15T10:02:28.249Z,14.27
2018-03-15T10:04:55.793Z,14.33
2018-03-15T10:07:23.332Z,14.93
2018-03-15T10:09:50.891Z,14.63
2018-03-15T10:12:18.433Z,15.23
2018-03-15T10:14:46.762Z,15.57
2018-03-15T10:17:14.294Z,15.43
2018-03-15T10:19:41.837Z,14.83
2018-03-15T10:22:09.363Z,15.53
2018-03-15T10:24:36.884Z,15.37
2018-03-15T10:27:04.438Z,15.23
2018-03-15T10:29:31.973Z,16.27
2018-03-15T10:31:59.534Z,15.60
2018-03-15T10:34:27.083Z,15.60
2018-03-15T10:36:54.638Z,15.20
2018-03-15T10:39:24.101Z,14.17
2018-03-15T10:41:51.658Z,15.70
2018-03-15T10:44:19.212Z,15.50
2018-03-15T10:46:46.754Z,14.33
2018-03-15T10:49:14.285Z,14.80
2018-03-15T10:51:41.841Z,15.13
2018-03-15T10:54:09.380Z,14.50
2018-03-15T10:56:37.701Z,14.60
2018-03-15T10:59:05.266Z,16.03
2018-03-15T11:01:38.449Z,15.10
2018-03-15T11:04:10.761Z,16.07
2018-03-15T11:06:52.816Z,14.43
2018-03-15T11:09:23.198Z,14.47
2018-03-15T11:11:51.152Z,15.40
2018-03-15T11:14:19.463Z,14.93
2018-03-15T11:16:47.001Z,15.90
2018-03-15T11:19:14.528Z,15.27
2018-03-15T11:21:43.728Z,15.20
2018-03-15T11:24:12.932Z,15.23
2018-03-15T11:26:42.108Z,14.80
2018-03-15T11:29:11.292Z,16.10
2018-03-15T11:31:40.489Z,15.20
2018-03-15T11:34:09.669Z,14.70
2018-03-15T11:36:38.867Z,15.70
2018-03-15T11:39:08.062Z,14.87
2018-03-15T11:41:37.271Z,15.77
2018-03-15T11:44:06.470Z,15.47
2018-03-15T11:46:35.673Z,15.13
2018-03-15T11:49:04.851Z,16.47
2018-03-15T11:51:34.058Z,16.93
2018-03-15T11:54:03.241Z,16.40
2018-03-15T11:56:32.449Z,15.50
2018-03-15T11:59:01.628Z,16.70
2018-03-15T12:01:30.817Z,16.97
2018-03-15T12:03:59.988Z,16.13
2018-03-15T12:06:29.183Z,16.47
2018-03-15T12:08:58.355Z,17.57
2018-03-15T12:11:27.561Z,17.40
2018-03-15T12:13:56.747Z,18.57
2018-03-15T12:16:25.988Z,17.73
2018-03-15T12:18:55.144Z,18.43
2018-03-15T12:21:24.324Z,17.10
2018-03-15T12:23:53.480Z,17.63
2018-03-15T12:26:22.660Z,18.00
2018-03-15T12:28:51.824Z,18.60
2018-03-15T12:31:21.014Z,19.13
2018-03-15T12:33:50.181Z,18.27
2018-03-15T12:36:19.380Z,16.77
2018-03-15T12:38:48.536Z,16.87
2018-03-15T12:41:17.718Z,17.93
2018-03-15T12:43:46.888Z,16.77
2018-03-15T12:46:16.068Z,18.37
2018-03-15T12:48:45.233Z,17.87
2018-03-15T12:51:14.412Z,19.23
2018-03-15T12:53:43.573Z,16.93
2018-03-15T12:56:12.762Z,17.10
2018-03-15T12:58:40.293Z,17.90
2018-03-15T13:01:08.624Z,17.83
2018-03-15T13:03:36.236Z,18.30
2018-03-15T13:06:03.710Z,17.27
2018-03-15T13:08:31.244Z,17.73
2018-03-15T13:10:59.525Z,17.63
2018-03-15T13:13:27.821Z,18.97
2018-03-15T13:15:55.334Z,18.23
2018-03-15T13:18:22.913Z,17.73
2018-03-15T13:20:51.385Z,19.03
2018-03-15T13:23:18.905Z,19.30
2018-03-15T13:25:46.430Z,19.33
2018-03-15T13:28:13.958Z,18.10
2018-03-15T13:30:41.479Z,17.97
2018-03-15T13:33:09.018Z,19.63
2018-03-15T13:35:36.561Z,19.50
2018-03-15T13:38:04.098Z,18.47
2018-03-15T13:40:32.385Z,18.43
2018-03-15T13:43:00.704Z,18.63
2018-03-15T13:45:28.229Z,19.57
2018-03-15T13:47:55.765Z,19.53
2018-03-15T13:50:24.053Z,20.07
2018-03-15T13:52:52.355Z,20.53
2018-03-15T13:55:19.874Z,19.77
2018-03-15T13:57:48.187Z,20.73
2018-03-15T14:00:15.700Z,20.53
2018-03-15T14:02:43.233Z,20.80
2018-03-15T14:05:10.762Z,20.77
2018-03-15T14:07:38.318Z,21.00
2018-03-15T14:10:05.828Z,20.90
2018-03-15T14:12:33.345Z,22.03
2018-03-15T14:15:00.878Z,21.47
2018-03-15T14:17:28.407Z,21.20
2018-03-15T14:19:56.713Z,21.57
2018-03-15T14:22:24.262Z,21.17
2018-03-15T14:27:26.522Z,22.13
2018-03-15T14:29:54.070Z,21.73
2018-03-15T14:32:21.589Z,21.73
2018-03-15T14:34:49.125Z,21.53
2018-03-15T14:37:16.707Z,21.67
2018-03-15T14:39:44.248Z,20.43
2018-03-15T14:42:11.778Z,20.40
2018-03-15T14:44:40.105Z,22.57
2018-03-15T14:47:07.632Z,21.73
2018-03-15T14:49:35.938Z,22.63
2018-03-15T14:52:03.452Z,22.07
2018-03-15T14:54:31.758Z,23.07
2018-03-15T14:56:59.274Z,22.07
2018-03-15T14:59:26.812Z,23.43
2018-03-15T15:01:54.330Z,21.30
2018-03-15T15:04:21.877Z,22.03
2018-03-15T15:06:49.405Z,22.67
2018-03-15T15:09:16.967Z,21.90
2018-03-15T15:11:44.477Z,23.07
2018-03-15T15:14:12.895Z,21.90
2018-03-15T15:16:40.427Z,21.00
2018-03-15T15:19:07.964Z,19.97
2018-03-15T15:21:35.526Z,20.47
2018-03-15T15:24:03.061Z,21.03
2018-03-15T15:26:30.595Z,21.90
2018-03-15T15:28:58.152Z,20.67
2018-03-15T15:31:25.689Z,21.47
2018-03-15T15:33:53.842Z,21.73
2018-03-15T15:36:21.372Z,21.67
2018-03-15T15:38:48.885Z,21.70
2018-03-15T15:41:16.425Z,20.83
2018-03-15T15:43:43.948Z,22.23
2018-03-15T15:46:11.485Z,21.43
2018-03-15T15:48:39.775Z,20.77
2018-03-15T15:51:08.075Z,21.33
2018-03-15T15:53:35.607Z,22.17
2018-03-15T15:56:03.159Z,21.13
2018-03-15T15:58:31.446Z,21.20
2018-03-15T16:00:58.980Z,20.87
2018-03-15T16:03:26.508Z,22.10
2018-03-15T16:05:54.041Z,21.30
2018-03-15T16:08:21.582Z,21.40
2018-03-15T16:10:49.116Z,21.77
2018-03-15T16:13:17.417Z,21.40
2018-03-15T16:15:45.004Z,21.93
2018-03-15T16:18:13.259Z,21.37
2018-03-15T16:20:40.774Z,20.57
2018-03-15T16:23:08.306Z,20.13
2018-03-15T16:25:35.827Z,20.57
2018-03-15T16:28:03.411Z,20.97
2018-03-15T16:30:30.925Z,21.27
2018-03-15T16:32:59.230Z,21.30
2018-03-15T16:35:26.745Z,21.17
2018-03-15T16:37:55.052Z,19.53
2018-03-15T16:40:22.561Z,20.27
2018-03-15T16:42:50.099Z,19.70
2018-03-15T16:45:17.626Z,19.57
2018-03-15T16:47:45.170Z,18.63
2018-03-15T16:50:13.457Z,18.97
2018-03-15T16:52:41.074Z,18.87
2018-03-15T16:55:08.586Z,18.30
2018-03-15T16:57:36.122Z,19.37
2018-03-15T17:00:03.667Z,19.60
2018-03-15T17:02:31.225Z,18.47
2018-03-15T17:04:59.509Z,18.57
2018-03-15T17:07:27.810Z,19.37
2018-03-15T17:09:55.326Z,19.60
2018-03-15T17:12:22.873Z,19.67
2018-03-15T17:14:50.386Z,18.00
2018-03-15T17:17:17.892Z,18.97
2018-03-15T17:19:45.448Z,19.37
2018-03-15T17:22:12.965Z,19.33
2018-03-15T17:24:40.497Z,21.52
2018-03-15T17:27:08.774Z,20.27
2018-03-15T17:29:36.305Z,19.63
2018-03-15T17:32:03.821Z,19.47
2018-03-15T17:34:31.364Z,20.17
2018-03-15T17:36:58.884Z,19.63
2018-03-15T17:39:27.295Z,20.03
2018-03-15T17:41:54.825Z,19.27
2018-03-15T17:44:23.127Z,18.67
2018-03-15T17:46:50.654Z,20.43
2018-03-15T17:49:18.191Z,20.17
2018-03-15T17:51:45.704Z,24.03
2018-03-15T17:54:13.234Z,19.70
2018-03-15T17:56:40.749Z,19.73
2018-03-15T17:59:08.281Z,19.87
2018-03-15T18:01:35.818Z,19.77
2018-03-15T18:04:04.114Z,21.03
2018-03-15T18:06:31.624Z,21.30
2018-03-15T18:08:59.176Z,20.93
2018-03-15T18:11:26.687Z,21.30
2018-03-15T18:13:54.233Z,21.20
2018-03-15T18:16:21.765Z,21.83
2018-03-15T18:18:49.280Z,21.97
2018-03-15T18:21:16.824Z,22.67
2018-03-15T18:23:44.340Z,22.57
2018-03-15T18:26:11.882Z,21.43
2018-03-15T18:28:39.394Z,22.90
2018-03-15T18:31:06.920Z,22.03
2018-03-15T18:33:35.200Z,22.70
2018-03-15T18:36:03.525Z,22.90
2018-03-15T18:38:31.045Z,22.00
2018-03-15T18:40:58.569Z,22.77
2018-03-15T18:43:26.074Z,22.23
2018-03-15T18:45:53.630Z,21.20
2018-03-15T18:48:21.167Z,21.93
2018-03-15T18:50:49.436Z,22.57
2018-03-15T18:53:17.748Z,22.40
2018-03-15T18:55:45.262Z,22.43
2018-03-15T18:58:12.796Z,22.37
2018-03-15T19:00:41.436Z,21.37
2018-03-15T19:03:09.682Z,21.63
2018-03-15T19:05:37.667Z,20.53
2018-03-15T19:08:05.276Z,21.80
2018-03-15T19:10:32.790Z,22.17
2018-03-15T19:13:00.330Z,21.30
2018-03-15T19:15:28.633Z,21.20
2018-03-15T19:17:56.167Z,21.47
2018-03-15T19:20:23.697Z,21.00
2018-03-15T19:22:51.226Z,20.50
2018-03-15T19:25:18.732Z,20.37
2018-03-15T19:27:47.033Z,20.13
2018-03-15T19:30:15.397Z,18.83
2018-03-15T19:32:42.973Z,19.80
2018-03-15T19:35:10.486Z,19.87
2018-03-15T19:37:38.017Z,19.27
2018-03-15T19:40:05.590Z,19.63
2018-03-15T19:42:33.129Z,19.87
2018-03-15T19:45:00.670Z,19.83
2018-03-15T19:47:28.194Z,19.23
2018-03-15T19:49:56.509Z,19.23
2018-03-15T19:52:24.022Z,19.63
2018-03-15T19:54:51.554Z,20.60
2018-03-15T19:57:19.072Z,20.80
2018-03-15T19:59:46.598Z,19.87
2018-03-15T20:02:14.123Z,20.60
2018-03-15T20:04:41.666Z,20.33
2018-03-15T20:07:09.197Z,20.57
2018-03-15T20:09:36.728Z,21.40
2018-03-15T20:12:04.370Z,21.57
2018-03-15T20:14:31.896Z,20.03
2018-03-15T20:16:59.433Z,22.00
2018-03-15T20:19:27.009Z,21.60
2018-03-15T20:21:55.070Z,22.53
2018-03-15T20:24:28.303Z,21.27
2018-03-15T20:26:56.077Z,21.23
2018-03-15T20:29:23.610Z,22.07
2018-03-15T20:31:51.134Z,22.17
2018-03-15T20:34:18.669Z,21.50
2018-03-15T20:36:46.942Z,22.93
2018-03-15T20:39:20.187Z,22.97
2018-03-15T20:41:47.706Z,23.13
2018-03-15T20:44:15.259Z,23.53
2018-03-15T20:46:49.227Z,23.33
2018-03-15T20:49:16.760Z,24.23
2018-03-15T20:51:44.273Z,22.20
2018-03-15T20:54:11.806Z,23.73
2018-03-15T20:56:39.321Z,23.77
2018-03-15T20:59:06.876Z,25.00
2018-03-15T21:01:34.392Z,24.47
2018-03-15T21:04:01.933Z,24.90
2018-03-15T21:06:29.464Z,26.80
2018-03-15T21:08:57.526Z,25.63
2018-03-15T21:11:25.599Z,25.63
2018-03-15T21:13:53.142Z,25.60
2018-03-15T21:16:20.921Z,25.87
2018-03-15T21:18:48.466Z,26.00
2018-03-15T21:21:16.002Z,27.30
2018-03-15T21:23:44.280Z,26.17
2018-03-15T21:26:12.577Z,27.30
2018-03-15T21:28:40.682Z,27.20
2018-03-15T21:31:08.328Z,28.67
2018-03-15T21:33:35.869Z,28.00
2018-03-15T21:38:35.154Z,28.60
2018-03-15T21:41:02.707Z,27.00
2018-03-15T21:43:30.244Z,27.67
2018-03-15T21:45:57.808Z,28.07
2018-03-15T21:48:25.340Z,30.40
2018-03-15T21:50:54.056Z,30.27
2018-03-15T21:53:21.598Z,29.53
2018-03-15T21:55:49.140Z,32.63
2018-03-15T21:58:16.677Z,31.37
2018-03-15T22:00:44.353Z,32.97
2018-03-15T22:03:11.871Z,33.83
2018-03-15T22:05:39.443Z,33.37
2018-03-15T22:08:07.752Z,33.23
2018-03-15T22:10:35.294Z,34.43
2018-03-15T22:13:02.970Z,34.23
2018-03-15T22:15:30.542Z,35.07
2018-03-15T22:17:58.078Z,33.60
2018-03-15T22:20:25.634Z,32.77
2018-03-15T22:22:53.204Z,34.90
2018-03-15T22:25:20.748Z,33.67
2018-03-15T22:27:48.254Z,35.30
2018-03-15T22:30:15.899Z,34.13
2018-03-15T22:32:43.445Z,35.00
2018-03-15T22:35:10.977Z,34.00
2018-03-15T22:37:38.575Z,34.63
2018-03-15T22:40:06.077Z,35.30
2018-03-15T22:42:33.594Z,35.13
2018-03-15T22:45:01.193Z,36.67
2018-03-15T22:47:29.473Z,35.30
2018-03-15T22:49:57.104Z,35.77
2018-03-15T22:52:24.613Z,37.80
2018-03-15T22:54:52.145Z,37.00
2018-03-15T22:57:19.662Z,36.77
2018-03-15T22:59:47.195Z,37.23
2018-03-15T23:02:14.705Z,36.40
2018-03-15T23:04:43.038Z,33.93
2018-03-15T23:07:10.561Z,38.83
2018-03-15T23:09:38.921Z,38.53
2018-03-15T23:12:06.453Z,37.33
2018-03-15T23:14:33.973Z,37.77
2018-03-15T23:17:01.515Z,36.60
2018-03-15T23:19:29.796Z,36.57
2018-03-15T23:21:57.341Z,37.47
2018-03-15T23:24:26.107Z,39.33
2018-03-15T23:26:55.155Z,36.67
2018-03-15T23:29:22.677Z,38.53
2018-03-15T23:31:50.248Z,38.10
2018-03-15T23:34:18.529Z,38.20
2018-03-15T23:36:46.065Z,37.57
2018-03-15T23:39:13.589Z,35.43
2018-03-15T23:41:41.124Z,36.07
2018-03-15T23:44:08.641Z,38.23
2018-03-15T23:46:36.942Z,36.80
2018-03-15T23:49:04.463Z,37.93
2018-03-15T23:51:31.998Z,39.07
2018-03-15T23:53:59.514Z,38.40
2018-03-15T23:56:27.049Z,38.80
2018-03-15T23:58:54.574Z,38.50
